Time;durP1;ratioP1;P1;durP2;ratioP2;P2;SDS_P1;SDS_P2;PMS_P1;PMS_P2;Temp;Humidity;BMP_temperature;BMP_pressure;BME280_temperature;BME280_humidity;BME280_pressure;Samples;Min_cycle;Max_cycle;Signal;HPM_P1;HPM_P2
2022/01/11 00:00:01;;;;;;;44.30;21.25;;;;;;;2.71;76.94;100835.81;347706;28;1336;-71
2022/01/11 00:00:14;;;;;;;44.80;22.40;;;;;;;2.75;76.99;100837.59;347628;28;1299;-72
2022/01/11 00:00:27;;;;;;;45.83;22.52;;;;;;;2.74;77.05;100833.31;347642;28;1019;-72
2022/01/11 00:00:41;;;;;;;46.45;21.40;;;;;;;2.73;77.16;100833.28;347578;28;1199;-72
2022/01/11 00:00:53;;;;;;;45.05;21.92;;;;;;;2.75;77.08;100836.72;347597;28;1297;-71
2022/01/11 00:01:07;;;;;;;44.50;22.88;;;;;;;2.73;77.29;100828.13;348736;28;1051;-71
2022/01/11 00:01:21;;;;;;;41.97;22.10;;;;;;;2.71;77.44;100833.25;349032;28;1076;-71
2022/01/11 00:01:33;;;;;;;44.05;21.05;;;;;;;2.67;77.18;100833.16;349287;28;1029;-71
2022/01/11 00:01:45;;;;;;;45.17;20.42;;;;;;;2.72;77.14;100834.97;349022;28;1055;-71
2022/01/11 00:01:58;;;;;;;43.03;20.85;;;;;;;2.75;77.57;100827.31;349173;28;1074;-71
2022/01/11 00:02:10;;;;;;;41.03;20.63;;;;;;;2.77;77.15;100835.91;349167;28;1058;-72
2022/01/11 00:02:22;;;;;;;44.20;21.60;;;;;;;2.75;77.43;100831.59;347578;28;1261;-72
2022/01/11 00:02:37;;;;;;;44.95;21.77;;;;;;;2.69;77.51;100834.91;347750;28;1072;-72
2022/01/11 00:02:52;;;;;;;45.17;22.08;;;;;;;2.69;77.17;100832.34;347553;28;1086;-71
2022/01/11 00:03:05;;;;;;;48.45;23.20;;;;;;;2.68;77.24;100833.19;347648;28;1075;-71
2022/01/11 00:03:18;;;;;;;50.22;23.70;;;;;;;2.67;77.37;100836.59;346333;28;1070;-71
2022/01/11 00:03:31;;;;;;;48.47;22.38;;;;;;;2.63;77.48;100827.09;345018;28;1123;-72
2022/01/11 00:03:43;;;;;;;47.15;21.58;;;;;;;2.56;77.90;100831.25;345008;28;1142;-69
2022/01/11 00:03:56;;;;;;;47.78;22.10;;;;;;;2.58;77.44;100831.31;344917;28;1054;-71
2022/01/11 00:04:15;;;;;;;47.60;22.67;;;;;;;2.62;77.66;100825.38;344742;28;1066;-72
2022/01/11 00:04:29;;;;;;;45.17;20.95;;;;;;;2.61;77.60;100833.91;346059;28;1093;-69
2022/01/11 00:04:41;;;;;;;43.67;20.52;;;;;;;2.58;77.06;100839.84;346220;28;939;-71
2022/01/11 00:04:53;;;;;;;46.17;21.67;;;;;;;2.60;77.59;100833.03;345053;28;1126;-71
2022/01/11 00:05:05;;;;;;;47.83;23.27;;;;;;;2.62;76.85;100835.66;344820;28;1063;-70
2022/01/11 00:05:24;;;;;;;50.28;23.65;;;;;;;2.61;77.00;100833.91;345109;28;1309;-71
2022/01/11 00:05:43;;;;;;;45.40;21.17;;;;;;;2.59;76.29;100836.44;347500;28;930;-71
2022/01/11 00:06:01;;;;;;;49.75;22.15;;;;;;;2.56;76.48;100836.41;347458;28;1317;-71
2022/01/11 00:06:59;;;;;;;49.85;22.45;;;;;;;2.66;75.88;100834.88;344553;28;1251;-69
2022/01/11 00:07:14;;;;;;;51.25;22.77;;;;;;;2.66;75.50;100837.44;344671;28;1535;-72
2022/01/11 00:07:29;;;;;;;48.05;21.77;;;;;;;2.66;75.80;100834.88;344756;28;1097;-71
2022/01/11 00:07:43;;;;;;;45.58;21.55;;;;;;;2.69;75.39;100837.47;344718;28;1199;-70
2022/01/11 00:07:56;;;;;;;43.33;21.27;;;;;;;2.68;74.99;100838.34;345081;28;1306;-71
2022/01/11 00:08:10;;;;;;;44.67;20.50;;;;;;;2.68;74.96;100842.63;344834;28;1691;-72
2022/01/11 00:08:30;;;;;;;43.10;19.98;;;;;;;2.70;75.25;100834.09;349144;28;1016;-71
2022/01/11 00:08:44;;;;;;;39.75;20.88;;;;;;;2.73;75.01;100826.44;349240;28;1117;-71
2022/01/11 00:09:01;;;;;;;40.50;20.55;;;;;;;2.76;75.48;100839.34;348918;28;1068;-72
2022/01/11 00:09:32;;;;;;;44.30;19.55;;;;;;;2.77;75.55;100835.91;349133;28;1293;-71
2022/01/11 00:09:45;;;;;;;41.50;20.65;;;;;;;2.80;75.41;100825.72;348899;28;1065;-72
2022/01/11 00:09:57;;;;;;;44.40;20.17;;;;;;;2.80;75.55;100836.00;348869;28;1488;-71
2022/01/11 00:10:13;;;;;;;43.55;19.38;;;;;;;2.80;75.86;100833.41;348926;28;1282;-72
2022/01/11 00:10:54;;;;;;;46.47;20.50;;;;;;;2.83;76.41;100824.03;349600;28;824;-71
2022/01/11 00:11:07;;;;;;;39.13;21.08;;;;;;;2.84;76.16;100828.31;348774;28;1117;-71
2022/01/11 00:11:19;;;;;;;38.08;20.25;;;;;;;2.86;76.59;100834.34;349248;28;1061;-71
2022/01/11 00:11:31;;;;;;;38.10;20.17;;;;;;;2.87;76.04;100830.97;348970;28;1119;-71
2022/01/11 00:11:43;;;;;;;42.78;21.58;;;;;;;2.88;75.73;100835.25;348912;28;1022;-72
2022/01/11 00:11:55;;;;;;;46.17;21.83;;;;;;;2.91;75.67;100827.59;348950;28;1229;-72
2022/01/11 00:12:08;;;;;;;42.83;20.40;;;;;;;2.92;75.73;100835.34;348907;28;1043;-71
2022/01/11 00:12:20;;;;;;;41.75;19.30;;;;;;;2.94;75.22;100832.81;349075;28;1124;-72
2022/01/11 00:12:32;;;;;;;44.70;19.00;;;;;;;2.93;75.11;100833.63;348807;28;1906;-72
2022/01/11 00:12:44;;;;;;;46.75;20.40;;;;;;;2.95;75.02;100834.53;348875;28;1011;-71
2022/01/11 00:12:59;;;;;;;45.58;21.27;;;;;;;2.95;75.43;100826.81;348886;28;1165;-72
2022/01/11 00:13:11;;;;;;;42.28;21.08;;;;;;;2.96;75.03;100831.13;349680;28;875;-71
2022/01/11 00:13:23;;;;;;;38.78;19.52;;;;;;;2.94;74.67;100830.25;349188;28;1305;-71
2022/01/11 00:13:38;;;;;;;38.50;19.42;;;;;;;2.93;74.92;100828.50;349141;28;1326;-72
2022/01/11 00:13:50;;;;;;;42.05;20.45;;;;;;;2.93;74.62;100825.94;348989;28;1234;-71
2022/01/11 00:14:02;;;;;;;43.63;21.02;;;;;;;2.95;74.39;100832.81;347566;28;1499;-71
2022/01/11 00:14:14;;;;;;;38.83;19.67;;;;;;;2.96;74.50;100820.84;347464;28;1107;-71
2022/01/11 00:14:26;;;;;;;39.20;19.45;;;;;;;2.95;74.23;100834.53;347713;28;1087;-71
2022/01/11 00:14:39;;;;;;;43.03;20.02;;;;;;;2.96;74.11;100831.13;347648;28;1047;-72
2022/01/11 00:14:51;;;;;;;45.38;21.15;;;;;;;2.94;74.54;100827.69;347521;28;1184;-71
2022/01/11 00:15:03;;;;;;;44.88;20.58;;;;;;;2.90;74.32;100825.91;347581;28;1270;-72
2022/01/11 00:15:15;;;;;;;43.72;20.17;;;;;;;2.88;74.42;100825.84;347635;28;1106;-71
2022/01/11 00:15:29;;;;;;;45.10;20.00;;;;;;;2.92;74.38;100834.50;347620;28;1153;-70
2022/01/11 00:15:42;;;;;;;40.85;20.08;;;;;;;2.94;74.27;100830.25;346593;28;1070;-70
2022/01/11 00:15:54;;;;;;;40.53;19.88;;;;;;;2.94;74.47;100822.53;346660;28;808;-71
2022/01/11 00:16:08;;;;;;;39.40;19.08;;;;;;;2.94;74.68;100832.81;346806;28;1185;-71
2022/01/11 00:16:20;;;;;;;33.65;18.10;;;;;;;2.97;74.76;100822.56;347423;28;1076;-71
2022/01/11 00:16:33;;;;;;;36.47;18.08;;;;;;;2.99;74.89;100833.75;347429;28;1019;-72
2022/01/11 00:16:45;;;;;;;39.35;18.60;;;;;;;2.99;75.17;100821.75;347554;28;1369;-71
2022/01/11 00:16:59;;;;;;;38.45;18.13;;;;;;;3.00;74.96;100823.50;347573;28;1070;-70
2022/01/11 00:17:11;;;;;;;35.00;17.98;;;;;;;3.04;74.92;100829.56;347566;28;1025;-72
2022/01/11 00:17:23;;;;;;;34.38;18.20;;;;;;;3.04;74.97;100829.56;347546;28;1045;-72
2022/01/11 00:17:34;;;;;;;35.60;18.50;;;;;;;2.98;75.59;100834.59;347507;28;1182;-71
2022/01/11 00:17:47;;;;;;;38.58;18.90;;;;;;;2.96;75.82;100826.84;348315;28;1335;-71
2022/01/11 00:17:59;;;;;;;45.42;20.02;;;;;;;2.94;75.79;100827.69;349162;28;1085;-72
2022/01/11 00:18:11;;;;;;;45.83;20.60;;;;;;;2.96;76.25;100826.00;348911;28;1139;-71
2022/01/11 00:18:23;;;;;;;44.83;21.02;;;;;;;2.94;75.77;100823.41;348976;28;1046;-71
2022/01/11 00:18:35;;;;;;;43.22;21.15;;;;;;;2.93;75.83;100831.06;349137;28;1345;-71
2022/01/11 00:18:47;;;;;;;44.30;20.08;;;;;;;2.87;76.48;100825.81;349116;28;1126;-71
2022/01/11 00:19:05;;;;;;;42.50;19.23;;;;;;;2.79;76.80;100834.25;349055;28;1185;-71
2022/01/11 00:19:17;;;;;;;40.70;20.05;;;;;;;2.65;77.78;100828.00;349172;28;1065;-70
2022/01/11 00:19:29;;;;;;;41.38;20.90;;;;;;;2.68;77.37;100825.50;348857;28;1179;-71
2022/01/11 00:19:43;;;;;;;43.75;21.20;;;;;;;2.69;77.96;100827.22;348894;28;1067;-70
2022/01/11 00:19:55;;;;;;;45.10;20.42;;;;;;;2.67;78.04;100828.03;348934;28;1065;-72
2022/01/11 00:20:07;;;;;;;42.00;19.42;;;;;;;2.71;77.58;100828.09;349029;28;1050;-72
2022/01/11 00:20:21;;;;;;;41.53;19.52;;;;;;;2.72;77.72;100832.41;349179;28;1074;-71
2022/01/11 00:20:33;;;;;;;41.78;20.10;;;;;;;2.75;77.47;100832.47;349114;28;1484;-72
2022/01/11 00:20:45;;;;;;;42.13;20.05;;;;;;;2.78;77.33;100831.66;348839;28;1181;-71
2022/01/11 00:20:57;;;;;;;40.03;19.30;;;;;;;2.82;76.77;100827.44;349056;28;1110;-72
2022/01/11 00:21:10;;;;;;;40.72;19.23;;;;;;;2.86;77.03;100829.22;349197;28;1078;-70
2022/01/11 00:21:22;;;;;;;43.55;19.95;;;;;;;2.90;77.04;100826.75;348974;28;1071;-71
2022/01/11 00:21:37;;;;;;;42.22;18.73;;;;;;;2.92;77.37;100834.50;349019;28;1054;-71
2022/01/11 00:21:49;;;;;;;38.25;18.05;;;;;;;2.97;76.55;100822.56;349098;28;1262;-70
2022/01/11 00:22:06;;;;;;;38.47;19.10;;;;;;;3.00;76.48;100828.63;348980;28;1058;-71
2022/01/11 00:22:20;;;;;;;41.45;19.08;;;;;;;3.02;76.58;100818.41;349177;28;1118;-71
2022/01/11 00:22:36;;;;;;;42.08;18.33;;;;;;;3.02;76.36;100826.09;349028;28;1092;-71
2022/01/11 00:24:27;;;;;;;38.72;18.30;;;;;;;3.06;76.27;100821.84;349139;28;1304;-71
2022/01/11 00:24:28;;;;;;;41.72;18.80;;;;;;;3.16;74.77;100824.63;349011;28;1069;-72
2022/01/11 00:24:40;;;;;;;40.88;20.55;;;;;;;3.15;74.84;100822.88;347453;28;1312;-71
2022/01/11 00:24:52;;;;;;;40.47;20.30;;;;;;;3.13;75.16;100824.56;347750;28;1121;-71
2022/01/11 00:25:04;;;;;;;37.95;18.73;;;;;;;3.10;74.97;100827.09;347589;28;1306;-71
2022/01/11 00:25:16;;;;;;;35.53;18.65;;;;;;;3.12;74.96;100825.41;347612;28;1039;-71
2022/01/11 00:25:32;;;;;;;36.85;18.95;;;;;;;3.10;75.50;100824.53;347411;28;1051;-71
2022/01/11 00:25:46;;;;;;;38.30;18.80;;;;;;;3.10;75.22;100827.09;347481;28;1063;-72
2022/01/11 00:25:58;;;;;;;35.10;18.02;;;;;;;3.13;75.30;100824.56;347499;28;1108;-71
2022/01/11 00:26:10;;;;;;;29.85;16.75;;;;;;;3.16;75.57;100828.91;347585;28;1051;-71
2022/01/11 00:26:22;;;;;;;31.55;17.42;;;;;;;3.16;75.27;100824.63;347615;28;1043;-71
2022/01/11 00:26:34;;;;;;;36.50;18.92;;;;;;;3.16;75.52;100824.63;347525;28;1047;-71
2022/01/11 00:26:46;;;;;;;37.58;19.02;;;;;;;3.18;75.46;100828.06;348439;28;1167;-71
2022/01/11 00:27:01;;;;;;;35.03;17.85;;;;;;;3.21;75.51;100822.13;348990;28;1097;-71
2022/01/11 00:27:13;;;;;;;32.38;16.55;;;;;;;3.24;75.99;100826.44;349314;28;1101;-72
2022/01/11 00:27:25;;;;;;;34.85;18.02;;;;;;;3.27;75.68;100823.94;348890;28;1059;-72
2022/01/11 00:27:37;;;;;;;38.70;18.86;;;;;;;3.28;75.55;100823.06;349347;28;1604;-71
2022/01/11 00:27:49;;;;;;;39.42;18.30;;;;;;;3.28;75.50;100829.09;349091;28;1318;-72
2022/01/11 00:28:01;;;;;;;42.97;18.40;;;;;;;3.28;75.61;100823.06;348896;28;1102;-72
2022/01/11 00:28:15;;;;;;;45.30;19.23;;;;;;;3.30;75.62;100826.53;348873;28;1022;-71
2022/01/11 00:28:32;;;;;;;38.53;18.55;;;;;;;3.31;75.63;100823.13;349050;28;1050;-71
2022/01/11 00:28:44;;;;;;;38.30;18.50;;;;;;;3.32;75.58;100824.84;349002;28;1054;-71
2022/01/11 00:28:56;;;;;;;35.55;18.40;;;;;;;3.32;75.70;100827.41;349051;28;1062;-71
2022/01/11 00:29:08;;;;;;;41.47;19.85;;;;;;;3.30;75.09;100829.09;349098;28;1245;-71
2022/01/11 00:29:20;;;;;;;42.53;20.35;;;;;;;3.29;75.22;100829.97;347591;28;1253;-71
2022/01/11 00:29:33;;;;;;;43.70;20.58;;;;;;;3.24;75.63;100831.56;347426;28;1252;-71
2022/01/11 00:29:50;;;;;;;39.97;19.35;;;;;;;3.18;75.65;100830.66;347434;28;1073;-71
2022/01/11 00:30:07;;;;;;;37.55;18.30;;;;;;;3.17;76.03;100823.75;347684;28;1079;-70
2022/01/11 00:30:20;;;;;;;38.28;18.25;;;;;;;3.20;75.78;100830.69;347582;28;1564;-71
2022/01/11 00:30:37;;;;;;;37.35;18.15;;;;;;;3.19;75.82;100827.22;347495;28;1133;-70
2022/01/11 00:30:50;;;;;;;41.10;19.23;;;;;;;3.25;75.90;100825.59;347493;28;1366;-70
2022/01/11 00:31:06;;;;;;;40.17;19.38;;;;;;;3.27;75.86;100827.34;347429;28;1040;-71
2022/01/11 00:31:19;;;;;;;36.10;18.52;;;;;;;3.29;75.87;100827.38;347450;28;1120;-71
2022/01/11 00:31:31;;;;;;;38.78;18.23;;;;;;;3.31;75.82;100828.28;348828;28;1047;-71
2022/01/11 00:31:45;;;;;;;38.00;17.98;;;;;;;3.31;76.12;100828.28;349148;28;1117;-71
2022/01/11 00:32:03;;;;;;;37.58;18.48;;;;;;;3.31;76.06;100823.13;348842;28;1140;-71
2022/01/11 00:32:23;;;;;;;35.95;17.60;;;;;;;3.33;75.96;100827.44;349203;28;1032;-71
2022/01/11 00:32:43;;;;;;;40.40;18.60;;;;;;;3.37;75.87;100826.66;347560;28;1110;-72
2022/01/11 00:32:57;;;;;;;41.90;19.13;;;;;;;3.41;75.61;100827.56;346089;28;1274;-71
2022/01/11 00:33:15;;;;;;;42.30;19.20;;;;;;;3.39;75.77;100822.41;346212;28;1170;-70
2022/01/11 00:33:39;;;;;;;40.84;19.36;;;;;;;3.35;75.66;100824.91;346190;28;1489;-70
2022/01/11 00:33:51;;;;;;;38.80;18.80;;;;;;;3.31;76.05;100828.28;346606;28;822;-71
2022/01/11 00:34:05;;;;;;;39.35;17.98;;;;;;;3.31;76.07;100828.28;346163;28;1089;-72
2022/01/11 00:34:20;;;;;;;39.75;18.63;;;;;;;3.32;76.41;100824.84;345869;28;1906;-71
2022/01/11 00:34:46;;;;;;;37.28;19.40;;;;;;;3.34;75.87;100829.19;346465;28;1205;-71
2022/01/11 00:34:59;;;;;;;35.50;18.00;;;;;;;3.34;76.27;100823.16;348752;28;1235;-72
2022/01/11 00:35:15;;;;;;;42.22;18.88;;;;;;;3.32;76.24;100817.13;348868;28;1262;-71
2022/01/11 00:35:28;;;;;;;45.85;20.13;;;;;;;3.32;76.39;100823.16;348945;28;1112;-72
2022/01/11 00:35:47;;;;;;;44.45;20.08;;;;;;;3.33;76.36;100821.44;349033;28;1046;-71
2022/01/11 00:36:03;;;;;;;45.65;19.98;;;;;;;3.34;76.49;100816.34;349545;28;835;-71
2022/01/11 00:36:15;;;;;;;40.13;20.13;;;;;;;3.32;76.07;100827.41;347682;28;1321;-71
2022/01/11 00:36:40;;;;;;;39.17;20.08;;;;;;;3.30;75.77;100823.97;347691;28;1074;-71
2022/01/11 00:36:52;;;;;;;42.42;20.18;;;;;;;3.18;76.18;100822.94;347562;28;1487;-71
2022/01/11 00:37:04;;;;;;;42.50;20.73;;;;;;;3.17;76.36;100821.19;347598;28;1035;-72
2022/01/11 00:37:18;;;;;;;47.97;20.98;;;;;;;3.09;76.82;100820.22;347618;28;1332;-71
2022/01/11 00:37:30;;;;;;;50.65;21.33;;;;;;;3.07;77.08;100829.59;347742;28;1125;-70
2022/01/11 00:37:44;;;;;;;45.88;21.13;;;;;;;3.09;76.68;100822.78;347686;28;1245;-71
2022/01/11 00:37:56;;;;;;;41.25;19.98;;;;;;;3.11;76.74;100826.22;347498;28;1030;-71
2022/01/11 00:38:10;;;;;;;38.97;18.77;;;;;;;3.14;76.88;100825.41;347615;28;1177;-70
2022/01/11 00:38:25;;;;;;;39.33;18.95;;;;;;;3.14;76.59;100825.41;348843;28;1222;-69
2022/01/11 00:38:39;;;;;;;38.85;19.67;;;;;;;3.14;76.79;100823.72;348859;28;1033;-71
2022/01/11 00:38:51;;;;;;;39.47;19.70;;;;;;;3.19;76.61;100819.50;348830;28;1019;-71
2022/01/11 00:39:03;;;;;;;39.10;19.48;;;;;;;3.19;76.59;100827.22;348859;28;1211;-71
2022/01/11 00:39:15;;;;;;;46.55;21.15;;;;;;;3.17;76.79;100826.34;349002;28;1093;-72
2022/01/11 00:39:27;;;;;;;49.38;21.70;;;;;;;3.18;76.38;100822.94;349006;28;1086;-72
2022/01/11 00:39:42;;;;;;;49.22;21.30;;;;;;;3.18;77.12;100824.66;349144;28;1125;-71
2022/01/11 00:39:54;;;;;;;44.38;20.48;;;;;;;3.17;77.19;100820.34;348951;28;1118;-71
2022/01/11 00:40:08;;;;;;;42.13;20.00;;;;;;;3.19;77.02;100822.09;348978;28;1179;-71
2022/01/11 00:40:21;;;;;;;39.97;20.27;;;;;;;3.17;77.17;100831.47;349408;28;1088;-71
2022/01/11 00:40:33;;;;;;;40.63;19.50;;;;;;;3.17;77.09;100826.34;348983;28;1119;-71
2022/01/11 00:40:50;;;;;;;41.22;18.83;;;;;;;3.22;77.13;100828.13;348963;28;1049;-71
2022/01/11 00:41:05;;;;;;;40.63;19.77;;;;;;;3.22;77.00;100826.44;348960;28;1106;-70
2022/01/11 00:41:17;;;;;;;40.53;19.88;;;;;;;3.23;77.23;100829.84;348922;28;1051;-69
2022/01/11 00:41:32;;;;;;;41.55;19.52;;;;;;;3.23;76.75;100829.84;348962;28;1315;-70
2022/01/11 00:41:45;;;;;;;40.60;18.08;;;;;;;3.25;77.16;100828.19;348939;28;1092;-72
2022/01/11 00:41:57;;;;;;;38.78;18.17;;;;;;;3.20;77.33;100825.53;349079;28;1110;-71
2022/01/11 00:42:09;;;;;;;39.58;19.52;;;;;;;3.20;77.33;100821.25;348974;28;1090;-72
2022/01/11 00:42:22;;;;;;;39.95;20.48;;;;;;;3.23;77.32;100820.44;349189;28;1177;-72
2022/01/11 00:42:35;;;;;;;41.50;20.17;;;;;;;3.18;77.38;100819.50;348823;28;1285;-71
2022/01/11 00:42:47;;;;;;;44.45;19.83;;;;;;;3.03;77.94;100817.53;349066;28;1027;-71
2022/01/11 00:43:00;;;;;;;45.08;19.95;;;;;;;3.04;77.72;100833.81;348893;28;1265;-71
2022/01/11 00:43:12;;;;;;;45.67;20.95;;;;;;;2.97;78.25;100832.84;349089;28;1094;-72
2022/01/11 00:43:26;;;;;;;45.22;20.67;;;;;;;2.94;78.49;100836.22;348798;28;1109;-71
2022/01/11 00:43:40;;;;;;;44.95;20.45;;;;;;;2.98;78.57;100825.19;348808;28;1066;-71
2022/01/11 00:43:52;;;;;;;39.28;19.73;;;;;;;3.05;78.14;100826.13;348994;28;1090;-72
2022/01/11 00:44:05;;;;;;;34.85;19.10;;;;;;;3.09;77.74;100827.91;348888;28;1395;-71
2022/01/11 00:44:17;;;;;;;35.05;18.45;;;;;;;3.12;77.59;100833.13;349086;28;1074;-72
2022/01/11 00:44:30;;;;;;;36.55;18.75;;;;;;;3.06;77.98;100822.75;349045;28;1068;-71
2022/01/11 00:44:42;;;;;;;39.53;20.02;;;;;;;3.00;78.20;100827.78;349045;28;1250;-71
2022/01/11 00:44:54;;;;;;;42.80;21.38;;;;;;;3.04;78.51;100821.84;348914;28;1055;-71
2022/01/11 00:45:12;;;;;;;45.35;22.05;;;;;;;3.02;78.08;100820.97;348959;28;1198;-71
2022/01/11 00:45:25;;;;;;;45.95;21.13;;;;;;;2.99;78.14;100833.75;349466;28;854;-71
2022/01/11 00:45:37;;;;;;;44.97;20.35;;;;;;;2.92;78.53;100829.34;348806;28;1070;-71
2022/01/11 00:45:50;;;;;;;45.45;20.60;;;;;;;2.88;78.48;100828.44;348943;28;1066;-71
2022/01/11 00:46:04;;;;;;;48.95;22.08;;;;;;;2.85;78.86;100833.50;348968;28;1051;-70
2022/01/11 00:46:16;;;;;;;49.38;22.95;;;;;;;2.77;78.88;100830.78;349005;28;1228;-71
2022/01/11 00:46:28;;;;;;;49.10;22.92;;;;;;;2.66;79.37;100832.31;348845;28;1118;-70
2022/01/11 00:46:41;;;;;;;49.10;22.18;;;;;;;2.68;78.88;100830.63;349109;28;1321;-70
2022/01/11 00:46:53;;;;;;;53.50;22.55;;;;;;;2.64;79.34;100831.41;349106;28;1054;-72
2022/01/11 00:47:05;;;;;;;51.15;22.65;;;;;;;2.68;79.03;100825.50;349051;28;1059;-71
2022/01/11 00:47:18;;;;;;;49.28;22.52;;;;;;;2.68;78.77;100824.63;349079;28;1065;-70
2022/01/11 00:47:31;;;;;;;44.25;21.27;;;;;;;2.70;78.64;100834.09;348972;28;1233;-72
2022/01/11 00:47:43;;;;;;;45.17;20.33;;;;;;;2.69;78.57;100821.22;349057;28;1084;-70
2022/01/11 00:47:55;;;;;;;46.10;20.58;;;;;;;2.72;77.86;100832.41;349027;28;1763;-71
2022/01/11 00:48:07;;;;;;;47.42;21.35;;;;;;;2.73;77.81;100829.00;348998;28;1265;-71
2022/01/11 00:48:20;;;;;;;48.53;21.73;;;;;;;2.73;77.93;100829.00;347514;28;1360;-70
2022/01/11 00:48:35;;;;;;;51.80;22.05;;;;;;;2.73;77.60;100823.84;347614;28;1090;-71
2022/01/11 00:48:47;;;;;;;55.95;21.13;;;;;;;2.70;77.42;100828.97;347583;28;1287;-71
2022/01/11 00:49:00;;;;;;;48.00;20.40;;;;;;;2.73;77.47;100829.00;347513;28;1251;-71
2022/01/11 00:49:12;;;;;;;45.17;21.70;;;;;;;2.71;77.79;100828.09;347627;28;1319;-72
2022/01/11 00:49:24;;;;;;;43.92;21.38;;;;;;;2.71;77.07;100824.69;347466;28;1059;-71
2022/01/11 00:49:39;;;;;;;44.03;21.35;;;;;;;2.73;77.36;100829.00;347485;28;1039;-71
2022/01/11 00:49:53;;;;;;;44.17;21.50;;;;;;;2.70;77.16;100828.97;347611;28;1002;-71
2022/01/11 00:50:07;;;;;;;43.70;20.83;;;;;;;2.76;77.17;100828.22;347551;28;1185;-72
2022/01/11 00:50:19;;;;;;;43.90;20.63;;;;;;;2.75;77.79;100824.75;347694;28;1027;-71
2022/01/11 00:50:33;;;;;;;43.30;20.60;;;;;;;2.77;77.89;100828.22;348625;28;1030;-71
2022/01/11 00:50:45;;;;;;;43.78;21.02;;;;;;;2.79;77.92;100828.25;348791;28;1131;-70
2022/01/11 00:50:57;;;;;;;41.03;20.20;;;;;;;2.77;78.33;100830.78;348788;28;1059;-71
2022/01/11 00:51:10;;;;;;;38.63;19.63;;;;;;;2.79;78.02;100823.97;349044;28;1019;-71
2022/01/11 00:51:22;;;;;;;38.85;19.73;;;;;;;2.83;78.11;100834.31;349039;28;1078;-71
2022/01/11 00:51:34;;;;;;;38.53;19.00;;;;;;;2.82;78.04;100827.44;349090;28;1292;-71
2022/01/11 00:51:46;;;;;;;40.22;18.77;;;;;;;2.80;78.75;100830.84;348885;28;1086;-71
2022/01/11 00:51:58;;;;;;;41.03;19.42;;;;;;;2.83;78.81;100826.59;347621;28;1023;-71
2022/01/11 00:52:14;;;;;;;38.47;19.92;;;;;;;2.86;78.51;100831.78;347549;28;1051;-71
2022/01/11 00:52:26;;;;;;;36.08;19.60;;;;;;;2.92;78.47;100834.50;347482;28;1163;-72
2022/01/11 00:52:38;;;;;;;36.88;19.23;;;;;;;2.92;78.25;100830.22;347371;28;1039;-72
2022/01/11 00:52:51;;;;;;;36.00;18.38;;;;;;;2.95;78.44;100829.38;347438;28;1176;-72
2022/01/11 00:53:04;;;;;;;35.58;18.08;;;;;;;2.98;78.58;100835.44;347328;28;1070;-70
2022/01/11 00:53:18;;;;;;;41.72;19.67;;;;;;;3.02;78.53;100826.09;347538;28;1085;-72
2022/01/11 00:53:30;;;;;;;46.67;21.48;;;;;;;3.04;78.15;100832.13;347349;28;1023;-72
2022/01/11 00:53:42;;;;;;;41.97;20.20;;;;;;;3.06;78.54;100832.13;347551;28;1134;-71
2022/01/11 00:53:55;;;;;;;35.50;18.35;;;;;;;3.09;78.13;100827.06;347477;28;1327;-72
2022/01/11 00:54:07;;;;;;;37.40;18.63;;;;;;;3.12;78.21;100827.09;348854;28;1030;-70
2022/01/11 00:54:19;;;;;;;36.58;18.58;;;;;;;3.10;77.97;100832.22;348803;28;1055;-71
2022/01/11 00:54:31;;;;;;;37.60;18.92;;;;;;;3.06;78.36;100827.00;349047;28;1035;-70
2022/01/11 00:54:43;;;;;;;43.35;20.45;;;;;;;3.02;78.11;100826.09;348961;28;1094;-70
2022/01/11 00:54:55;;;;;;;43.47;20.73;;;;;;;3.03;78.26;100832.94;348919;28;1098;-70
2022/01/11 00:55:07;;;;;;;44.70;20.15;;;;;;;3.03;78.38;100830.38;348804;28;1180;-71
2022/01/11 00:55:19;;;;;;;44.95;20.63;;;;;;;2.98;78.34;100830.31;349092;28;1023;-71
2022/01/11 00:55:32;;;;;;;45.63;22.05;;;;;;;3.03;78.54;100832.09;348957;28;1058;-71
2022/01/11 00:55:47;;;;;;;41.63;20.80;;;;;;;2.94;78.45;100838.81;348982;28;1049;-72
2022/01/11 00:55:59;;;;;;;40.85;19.58;;;;;;;2.94;78.49;100833.66;348791;28;1991;-70
2022/01/11 00:56:11;;;;;;;43.33;19.83;;;;;;;2.91;78.63;100832.75;349147;28;1051;-71
2022/01/11 00:56:23;;;;;;;43.38;20.85;;;;;;;2.88;79.11;100832.66;348915;28;1098;-71
2022/01/11 00:56:35;;;;;;;46.42;22.17;;;;;;;2.86;78.82;100829.22;349103;28;1333;-71
2022/01/11 00:56:47;;;;;;;43.85;21.73;;;;;;;2.74;79.29;100833.31;348946;28;1097;-71
2022/01/11 00:56:59;;;;;;;43.75;20.17;;;;;;;2.80;79.58;100835.13;348925;28;1073;-71
2022/01/11 00:57:11;;;;;;;44.05;19.77;;;;;;;2.78;79.60;100835.09;347723;28;1501;-71
2022/01/11 00:57:33;;;;;;;48.28;21.25;;;;;;;2.76;79.11;100831.63;347406;28;1231;-71
2022/01/11 00:57:46;;;;;;;47.50;22.52;;;;;;;2.75;79.52;100832.47;347459;28;1460;-71
2022/01/11 00:57:58;;;;;;;46.75;21.48;;;;;;;2.73;79.30;100828.13;347975;28;840;-71
2022/01/11 00:58:10;;;;;;;47.00;21.60;;;;;;;2.69;79.48;100837.47;347545;28;1069;-72
2022/01/11 00:58:22;;;;;;;47.33;22.48;;;;;;;2.70;79.24;100836.66;347619;28;1023;-71
2022/01/11 00:58:34;;;;;;;43.25;21.67;;;;;;;2.69;79.73;100834.91;347375;28;1055;-71
2022/01/11 00:58:47;;;;;;;42.72;21.05;;;;;;;2.68;79.75;100833.19;347348;28;1112;-72
2022/01/11 00:58:59;;;;;;;46.83;21.50;;;;;;;2.67;79.46;100836.59;347484;28;1295;-71
2022/01/11 00:59:11;;;;;;;46.88;21.90;;;;;;;2.67;79.25;100834.03;348002;28;1212;-71
2022/01/11 00:59:23;;;;;;;43.30;21.83;;;;;;;2.68;78.75;100834.91;349507;28;738;-70
2022/01/11 00:59:35;;;;;;;40.53;20.95;;;;;;;2.69;78.61;100832.34;348971;28;1108;-71
2022/01/11 00:59:47;;;;;;;40.38;20.42;;;;;;;2.69;78.54;100837.47;349075;28;1341;-70
2022/01/11 00:59:59;;;;;;;44.03;21.27;;;;;;;2.70;78.76;100834.09;349104;28;1089;-69
2022/01/11 01:00:11;;;;;;;44.40;21.05;;;;;;;2.72;78.76;100841.81;348997;28;1202;-71
2022/01/11 01:00:24;;;;;;;43.97;20.70;;;;;;;2.71;79.02;100835.81;348824;28;1016;-71
2022/01/11 01:00:38;;;;;;;47.35;21.98;;;;;;;2.75;79.31;100837.59;348023;28;731;-70
2022/01/11 01:00:50;;;;;;;53.42;23.83;;;;;;;2.76;79.01;100839.34;347676;28;1062;-70
2022/01/11 01:01:02;;;;;;;49.45;22.95;;;;;;;2.76;78.50;100843.63;347493;28;1263;-70
2022/01/11 01:01:15;;;;;;;46.95;21.77;;;;;;;2.74;78.36;100842.72;347412;28;1134;-71
2022/01/11 01:01:27;;;;;;;44.00;21.02;;;;;;;2.73;77.60;100839.25;347627;28;1094;-72
2022/01/11 01:01:39;;;;;;;44.08;21.85;;;;;;;2.74;77.25;100840.16;347408;28;1029;-71
2022/01/11 01:01:51;;;;;;;46.25;22.50;;;;;;;2.71;77.50;100843.50;347576;28;1029;-71
2022/01/11 01:02:04;;;;;;;48.53;21.77;;;;;;;2.70;77.35;100838.38;347521;28;1276;-70
2022/01/11 01:02:17;;;;;;;52.28;21.10;;;;;;;2.67;77.17;100844.28;347583;28;1764;-71
2022/01/11 01:02:29;;;;;;;55.20;21.08;;;;;;;2.65;77.09;100845.97;347570;28;1147;-71
2022/01/11 01:02:42;;;;;;;58.45;22.17;;;;;;;2.64;76.64;100849.38;348576;28;1018;-71
2022/01/11 01:02:55;;;;;;;50.72;22.48;;;;;;;2.59;77.74;100845.84;348835;28;1231;-72
2022/01/11 01:03:07;;;;;;;51.56;22.54;;;;;;;2.52;78.14;100847.44;348903;28;1059;-71
2022/01/11 01:03:20;;;;;;;47.22;21.42;;;;;;;2.52;78.92;100844.03;349014;28;1026;-72
2022/01/11 01:03:32;;;;;;;46.28;20.50;;;;;;;2.46;79.69;100839.63;349023;28;1147;-70
2022/01/11 01:03:44;;;;;;;47.83;20.98;;;;;;;2.47;79.56;100846.47;348933;28;1167;-70
2022/01/11 01:03:56;;;;;;;45.13;22.23;;;;;;;2.44;80.17;100845.56;348873;28;1159;-69
2022/01/11 01:04:10;;;;;;;42.97;22.10;;;;;;;2.45;80.25;100843.00;348924;28;1098;-70
2022/01/11 01:04:22;;;;;;;42.53;20.63;;;;;;;2.48;79.89;100839.66;347659;28;1035;-71
2022/01/11 01:04:34;;;;;;;44.35;20.92;;;;;;;2.45;80.49;100839.59;347545;28;1010;-71
2022/01/11 01:04:46;;;;;;;48.80;22.40;;;;;;;2.50;80.19;100845.69;347554;28;1305;-70
2022/01/11 01:04:58;;;;;;;49.75;22.17;;;;;;;2.49;80.23;100843.94;347637;28;1066;-70
2022/01/11 01:05:10;;;;;;;48.88;21.05;;;;;;;2.45;80.49;100843.00;347698;28;1095;-71
2022/01/11 01:05:22;;;;;;;45.45;21.30;;;;;;;2.45;80.52;100848.16;347468;28;1126;-71